Time;durP1;ratioP1;P1;durP2;ratioP2;P2;SDS_P1;SDS_P2;PMS_P1;PMS_P2;Temp;Humidity;BMP_temperature;BMP_pressure;BME280_temperature;BME280_humidity;BME280_pressure;Samples;Min_cycle;Max_cycle;Signal;HPM_P1;HPM_P2
2022/11/19 00:03:46;;;;;;;8.00;7.50;;;10.00;99.90;;;;;;10436674;28;20587;-79
2022/11/19 00:08:48;;;;;;;8.40;7.80;;;9.90;99.90;;;;;;10421459;28;20222;-80
2022/11/19 00:13:50;;;;;;;7.07;6.70;;;9.80;99.90;;;;;;10421978;28;20223;-81
2022/11/19 00:18:54;;;;;;;6.80;6.50;;;9.80;99.90;;;;;;10445626;28;20196;-81
2022/11/19 00:23:56;;;;;;;9.60;9.00;;;9.70;99.90;;;;;;10463018;28;20236;-81
2022/11/19 00:28:58;;;;;;;7.57;7.03;;;9.70;99.90;;;;;;10463428;28;20288;-81
2022/11/19 00:34:02;;;;;;;8.40;7.80;;;9.70;99.90;;;;;;10447077;28;20221;-81
2022/11/19 00:39:04;;;;;;;8.40;7.90;;;9.70;99.90;;;;;;10445683;28;20197;-81
2022/11/19 00:44:06;;;;;;;7.97;7.57;;;9.70;99.90;;;;;;10445775;28;20263;-81
2022/11/19 00:49:09;;;;;;;7.03;6.73;;;9.70;99.90;;;;;;10464847;28;20293;-81
2022/11/19 00:54:11;;;;;;;7.30;6.90;;;9.70;99.90;;;;;;10445022;28;20252;-79
2022/11/19 00:59:13;;;;;;;7.27;6.97;;;9.60;99.90;;;;;;10419544;28;20230;-81
2022/11/19 01:04:17;;;;;;;6.37;6.03;;;9.60;99.90;;;;;;10445363;28;20216;-81
2022/11/19 01:09:19;;;;;;;6.47;6.17;;;9.60;99.90;;;;;;10445279;28;20204;-81
2022/11/19 01:14:21;;;;;;;6.10;5.90;;;9.60;99.90;;;;;;10468461;28;20599;-78
2022/11/19 01:19:25;;;;;;;5.90;5.70;;;9.60;99.90;;;;;;10469543;28;20276;-80
2022/11/19 01:24:27;;;;;;;5.60;5.40;;;9.60;99.90;;;;;;10449735;28;20213;-80
2022/11/19 01:29:29;;;;;;;6.10;5.77;;;9.60;99.90;;;;;;10469810;28;20232;-80
2022/11/19 01:34:32;;;;;;;5.60;5.40;;;9.60;99.90;;;;;;10451446;28;20229;-80
2022/11/19 01:39:34;;;;;;;5.60;5.40;;;9.50;99.90;;;;;;10468112;28;20197;-79
2022/11/19 01:45:01;;;;;;;5.80;5.57;;;9.60;99.90;;;;;;10426657;28;20678;-80
2022/11/19 01:50:05;;;;;;;6.23;5.93;;;9.60;99.90;;;;;;10409340;28;20257;-81
2022/11/19 01:55:09;;;;;;;5.63;5.33;;;9.60;99.90;;;;;;10423437;23;20347;-78
2022/11/19 02:00:12;;;;;;;5.30;5.03;;;9.60;99.90;;;;;;10390596;28;20408;-78
2022/11/19 02:05:16;;;;;;;5.60;5.30;;;9.60;99.90;;;;;;10426631;28;20225;-79
2022/11/19 02:10:19;;;;;;;5.40;5.00;;;9.60;99.90;;;;;;10416380;28;20729;-80
2022/11/19 02:15:32;;;;;;;5.77;5.30;;;9.60;99.90;;;;;;10418971;28;20224;-82
2022/11/19 02:20:59;;;;;;;6.17;5.87;;;9.50;99.90;;;;;;10401115;28;20636;-79
2022/11/19 02:26:26;;;;;;;6.50;6.00;;;9.50;99.90;;;;;;10402395;28;20217;-81
2022/11/19 02:31:36;;;;;;;6.17;5.80;;;9.60;99.90;;;;;;10420146;28;20220;-81
2022/11/19 02:36:44;;;;;;;6.33;6.00;;;9.60;99.90;;;;;;10404984;28;20256;-79
2022/11/19 02:41:52;;;;;;;6.30;5.90;;;9.70;99.90;;;;;;10412913;28;20646;-78
2022/11/19 02:46:57;;;;;;;6.70;6.20;;;9.70;99.90;;;;;;10413030;28;20220;-79
2022/11/19 02:52:00;;;;;;;6.20;5.90;;;9.70;99.90;;;;;;10410303;28;20660;-79
2022/11/19 02:57:03;;;;;;;6.23;5.73;;;9.80;99.90;;;;;;10412103;28;20218;-77
2022/11/19 03:07:28;;;;;;;6.63;6.23;;;9.80;99.90;;;;;;10411895;28;20255;-77
2022/11/19 03:12:42;;;;;;;6.87;6.50;;;9.80;99.90;;;;;;10393986;28;20224;-79
2022/11/19 03:18:01;;;;;;;6.37;6.07;;;9.80;99.90;;;;;;10411121;28;20201;-79
2022/11/19 03:23:08;;;;;;;6.10;5.70;;;9.80;99.90;;;;;;10419218;28;20244;-81
2022/11/19 03:28:13;;;;;;;6.47;6.17;;;9.90;99.90;;;;;;10401316;28;20665;-78
2022/11/19 03:33:21;;;;;;;6.57;6.17;;;9.90;99.90;;;;;;10418418;28;20826;-77
2022/11/19 03:38:28;;;;;;;6.40;6.10;;;10.00;99.90;;;;;;10358943;28;20221;-78
2022/11/19 03:43:35;;;;;;;6.87;6.47;;;10.00;99.90;;;;;;10374687;28;20214;-79
2022/11/19 03:48:40;;;;;;;6.40;6.10;;;10.00;99.90;;;;;;10375426;28;20194;-79
2022/11/19 03:53:42;;;;;;;6.63;6.13;;;10.10;99.90;;;;;;10416504;28;20276;-79
2022/11/19 03:58:48;;;;;;;6.37;6.07;;;10.10;99.90;;;;;;10398402;28;20281;-78
2022/11/19 04:09:07;;;;;;;7.03;6.60;;;10.20;99.90;;;;;;10373990;28;20210;-79
2022/11/19 04:14:09;;;;;;;7.40;7.07;;;10.20;99.90;;;;;;10399296;28;20758;-81
2022/11/19 04:19:12;;;;;;;7.10;6.50;;;10.20;99.90;;;;;;10405361;28;20259;-80
2022/11/19 04:24:15;;;;;;;6.30;6.00;;;10.20;99.90;;;;;;10424309;28;20237;-82
2022/11/19 04:29:17;;;;;;;5.70;5.40;;;10.20;99.90;;;;;;10424504;28;20186;-80
2022/11/19 04:34:20;;;;;;;6.10;5.70;;;10.20;99.90;;;;;;10405037;28;20563;-80
2022/11/19 04:39:22;;;;;;;6.87;6.47;;;10.20;99.90;;;;;;10364179;28;20697;-82
2022/11/19 04:44:24;;;;;;;7.30;6.90;;;10.10;99.90;;;;;;10422985;28;20237;-82
2022/11/19 04:49:28;;;;;;;10.77;9.93;;;10.10;99.90;;;;;;10404792;28;20632;-79
2022/11/19 04:54:30;;;;;;;12.20;11.07;;;10.00;99.90;;;;;;10429793;28;20218;-79
2022/11/19 04:59:32;;;;;;;7.73;7.20;;;10.00;99.90;;;;;;10398349;28;20631;-78
2022/11/19 05:04:35;;;;;;;7.60;7.20;;;10.00;99.90;;;;;;10416162;28;20209;-79
2022/11/19 05:09:37;;;;;;;7.70;7.30;;;10.00;99.90;;;;;;10397045;28;20201;-78
2022/11/19 05:14:39;;;;;;;5.97;5.67;;;10.00;99.90;;;;;;10414535;28;20229;-77
2022/11/19 05:19:43;;;;;;;9.10;8.50;;;10.00;99.90;;;;;;10412702;28;20198;-77
2022/11/19 05:24:45;;;;;;;6.83;6.43;;;10.00;99.90;;;;;;10413806;28;20210;-78
2022/11/19 05:29:47;;;;;;;7.10;6.70;;;10.10;99.90;;;;;;10413799;28;20611;-79
2022/11/19 05:34:50;;;;;;;8.03;7.60;;;10.00;99.90;;;;;;10395691;28;20252;-79
2022/11/19 05:39:52;;;;;;;7.73;7.43;;;10.10;99.90;;;;;;10395212;28;20348;-77
2022/11/19 05:44:54;;;;;;;6.97;6.60;;;10.00;99.90;;;;;;10411698;28;20640;-78
2022/11/19 05:49:58;;;;;;;6.30;6.00;;;10.00;99.90;;;;;;10413272;28;20196;-78
2022/11/19 05:55:00;;;;;;;8.07;7.57;;;10.00;99.90;;;;;;10394827;28;20228;-79
2022/11/19 06:00:02;;;;;;;5.07;4.87;;;10.10;99.90;;;;;;10411902;28;20202;-78
2022/11/19 06:05:15;;;;;;;6.37;6.07;;;10.00;99.90;;;;;;10412200;28;20205;-79
2022/11/19 06:10:17;;;;;;;5.80;5.50;;;10.00;99.90;;;;;;10393719;28;20316;-81
2022/11/19 06:15:19;;;;;;;7.40;7.10;;;10.00;99.90;;;;;;10411286;28;20221;-79
2022/11/19 06:20:23;;;;;;;6.17;5.87;;;10.00;99.90;;;;;;10410256;28;20202;-82
2022/11/19 06:25:25;;;;;;;6.67;6.37;;;10.00;99.90;;;;;;10411593;28;20213;-77
2022/11/19 06:30:27;;;;;;;6.00;5.70;;;10.00;99.90;;;;;;10412729;28;20225;-79
2022/11/19 06:35:31;;;;;;;6.07;5.80;;;10.00;99.90;;;;;;10412685;28;20228;-78
2022/11/19 06:40:33;;;;;;;6.20;5.90;;;10.00;99.90;;;;;;10412372;28;20252;-78
2022/11/19 06:45:35;;;;;;;6.57;6.17;;;10.00;99.90;;;;;;10393964;28;20214;-79
2022/11/19 06:50:38;;;;;;;6.70;6.40;;;9.90;99.90;;;;;;10394486;28;20688;-78
2022/11/19 06:55:40;;;;;;;9.00;8.50;;;9.90;99.90;;;;;;10414472;28;20224;-78
2022/11/19 07:00:42;;;;;;;8.40;8.00;;;9.90;99.90;;;;;;10420125;28;20681;-77
2022/11/19 07:05:47;;;;;;;7.40;7.00;;;9.90;99.90;;;;;;10419493;28;20214;-78
2022/11/19 07:10:49;;;;;;;8.80;8.10;;;10.00;99.90;;;;;;10418349;28;20669;-78
2022/11/19 07:15:51;;;;;;;7.80;7.40;;;10.00;99.90;;;;;;10417882;28;20228;-78
2022/11/19 07:20:54;;;;;;;8.13;7.63;;;10.00;99.90;;;;;;10417641;28;20213;-78
2022/11/19 07:26:00;;;;;;;12.10;11.00;;;10.00;99.90;;;;;;10417123;28;20689;-78
2022/11/19 07:31:05;;;;;;;7.93;7.53;;;10.00;99.90;;;;;;10416485;28;20289;-79
2022/11/19 07:36:10;;;;;;;8.90;8.40;;;9.90;99.90;;;;;;10416453;28;20309;-78
2022/11/19 07:46:28;;;;;;;8.00;7.50;;;10.00;99.90;;;;;;10399151;28;20217;-79
2022/11/19 07:51:31;;;;;;;7.77;7.37;;;10.10;99.90;;;;;;10417240;28;20216;-79
2022/11/19 07:56:33;;;;;;;6.80;6.50;;;10.20;99.90;;;;;;10361669;28;20219;-80
2022/11/19 08:01:36;;;;;;;6.27;5.97;;;10.30;99.90;;;;;;10419728;28;20593;-79
2022/11/19 08:06:39;;;;;;;6.57;6.17;;;10.40;99.90;;;;;;10418700;28;20224;-79
2022/11/19 08:11:41;;;;;;;6.63;6.07;;;10.40;99.90;;;;;;10418983;28;20194;-79
2022/11/19 08:22:04;;;;;;;5.93;5.63;;;10.60;99.90;;;;;;10400588;28;20190;-79
2022/11/19 08:27:06;;;;;;;4.30;4.10;;;10.60;99.90;;;;;;10400661;28;20237;-79
2022/11/19 08:32:08;;;;;;;5.20;5.00;;;10.60;99.90;;;;;;10427997;28;20202;-78
2022/11/19 08:37:12;;;;;;;4.20;3.83;;;10.60;99.90;;;;;;10400147;28;20214;-79
2022/11/19 08:47:33;;;;;;;5.40;5.10;;;10.70;99.90;;;;;;10416848;28;20197;-80
2022/11/19 08:52:37;;;;;;;5.40;5.20;;;10.60;99.90;;;;;;10398539;28;20321;-79
2022/11/19 08:57:39;;;;;;;5.07;4.87;;;10.60;99.90;;;;;;10421176;28;20654;-79
2022/11/19 09:02:41;;;;;;;5.20;5.00;;;10.70;99.90;;;;;;10416313;28;20544;-79
2022/11/19 09:07:44;;;;;;;5.50;5.30;;;10.80;99.90;;;;;;10416163;28;20260;-79
2022/11/19 09:12:46;;;;;;;5.07;4.87;;;10.90;99.90;;;;;;10416568;28;20213;-79
2022/11/19 09:17:48;;;;;;;5.33;5.13;;;11.00;99.90;;;;;;10414777;28;20232;-79
2022/11/19 09:22:52;;;;;;;5.17;4.77;;;11.00;99.90;;;;;;10413821;28;20620;-79
2022/11/19 09:27:54;;;;;;;4.53;4.23;;;11.10;99.90;;;;;;10408273;28;20229;-79
2022/11/19 09:32:58;;;;;;;4.87;4.67;;;11.30;99.90;;;;;;10415294;28;20222;-79
2022/11/19 09:38:02;;;;;;;4.37;4.17;;;11.30;99.90;;;;;;10397063;28;20615;-79
2022/11/19 09:43:10;;;;;;;6.10;5.80;;;11.50;99.90;;;;;;10414286;28;20297;-78
2022/11/19 09:48:24;;;;;;;4.07;3.90;;;11.60;99.90;;;;;;10395887;28;20198;-78
2022/11/19 09:53:32;;;;;;;4.33;4.13;;;11.60;99.90;;;;;;10395513;28;20232;-79
2022/11/19 09:58:39;;;;;;;7.60;4.23;;;11.60;99.90;;;;;;10395725;28;20705;-78
2022/11/19 10:03:47;;;;;;;5.03;4.63;;;11.50;99.90;;;;;;10413754;28;20228;-79
2022/11/19 10:09:02;;;;;;;4.80;4.40;;;11.50;99.90;;;;;;10414344;28;20680;-78
2022/11/19 10:14:15;;;;;;;4.30;4.10;;;11.50;99.90;;;;;;10355960;28;20218;-79
2022/11/19 10:19:40;;;;;;;5.00;4.70;;;11.50;99.90;;;;;;10407077;28;20194;-79
2022/11/19 10:24:49;;;;;;;4.80;4.60;;;11.50;99.90;;;;;;10414097;28;20272;-79
2022/11/19 10:29:54;;;;;;;4.63;4.33;;;11.50;99.90;;;;;;10414711;28;20202;-80
2022/11/19 10:35:01;;;;;;;4.50;4.20;;;11.60;99.90;;;;;;10423031;28;20237;-79
2022/11/19 10:40:12;;;;;;;5.20;4.13;;;11.70;99.90;;;;;;10397948;28;20673;-79
2022/11/19 10:45:16;;;;;;;4.50;4.30;;;11.80;99.90;;;;;;10412445;28;20213;-79
2022/11/19 10:50:20;;;;;;;4.57;4.27;;;11.90;99.90;;;;;;10412630;28;20200;-79
2022/11/19 10:55:27;;;;;;;4.30;3.90;;;12.00;99.90;;;;;;10411699;28;20705;-79
2022/11/19 11:00:30;;;;;;;4.50;4.30;;;12.10;99.90;;;;;;10414311;28;20261;-79
2022/11/19 11:05:52;;;;;;;4.03;3.83;;;12.00;99.90;;;;;;10395982;28;20241;-79
2022/11/19 11:10:56;;;;;;;4.93;4.63;;;11.90;99.90;;;;;;10354842;28;20214;-78
2022/11/19 11:15:59;;;;;;;5.60;5.30;;;11.90;99.90;;;;;;10371430;28;20324;-78
2022/11/19 11:21:01;;;;;;;4.57;4.37;;;11.80;99.90;;;;;;10371470;28;20198;-78
2022/11/19 11:26:08;;;;;;;4.83;4.53;;;11.80;99.90;;;;;;10411574;28;20225;-79
2022/11/19 11:31:13;;;;;;;4.70;4.40;;;11.70;99.90;;;;;;10370434;28;20211;-79
2022/11/19 11:36:19;;;;;;;3.77;3.47;;;11.70;99.90;;;;;;10370420;28;20219;-79
2022/11/19 11:41:32;;;;;;;5.57;3.90;;;11.80;99.90;;;;;;10372568;28;20608;-79
2022/11/19 11:46:40;;;;;;;2.53;2.33;;;11.80;99.90;;;;;;10377527;28;20214;-79
2022/11/19 11:51:42;;;;;;;3.93;3.73;;;11.70;99.90;;;;;;10418913;28;20620;-79
2022/11/19 11:56:46;;;;;;;5.37;4.97;;;11.70;99.90;;;;;;10385376;28;20232;-79
2022/11/19 12:01:53;;;;;;;3.93;3.63;;;11.70;99.90;;;;;;10420489;28;20251;-80
2022/11/19 12:07:12;;;;;;;4.37;3.97;;;11.70;99.90;;;;;;10424356;28;20234;-79
2022/11/19 12:12:27;;;;;;;9.93;9.03;;;11.70;99.90;;;;;;10400435;28;20213;-79
2022/11/19 12:17:43;;;;;;;4.60;4.40;;;11.70;99.90;;;;;;10417919;28;20737;-79
2022/11/19 12:22:58;;;;;;;4.43;4.23;;;11.60;99.90;;;;;;10417591;28;20263;-79
2022/11/19 12:28:17;;;;;;;4.77;4.47;;;11.60;99.90;;;;;;10399496;28;20208;-79
2022/11/19 12:33:31;;;;;;;4.00;3.70;;;11.60;99.90;;;;;;10416748;28;20321;-79
2022/11/19 12:38:39;;;;;;;6.57;6.17;;;11.50;99.90;;;;;;10418373;28;20201;-79
2022/11/19 12:43:53;;;;;;;4.93;4.73;;;11.40;99.90;;;;;;10425185;28;20218;-79
2022/11/19 12:49:25;;;;;;;3.40;2.70;;;11.40;99.90;;;;;;10417066;28;20202;-79
2022/11/19 12:54:40;;;;;;;4.10;3.80;;;11.40;99.90;;;;;;10416523;28;20229;-78
2022/11/19 13:00:06;;;;;;;4.10;3.90;;;11.40;99.90;;;;;;10416971;28;20676;-79
2022/11/19 13:05:14;;;;;;;3.83;3.50;;;11.30;99.90;;;;;;10395960;28;20309;-79
2022/11/19 13:10:21;;;;;;;4.30;4.00;;;11.30;99.90;;;;;;10416482;28;20201;-79
2022/11/19 13:15:29;;;;;;;5.37;4.97;;;11.30;99.90;;;;;;10397998;28;20222;-79
2022/11/19 13:20:41;;;;;;;5.17;4.87;;;11.20;99.90;;;;;;10415754;28;20256;-79
2022/11/19 13:25:50;;;;;;;3.40;3.17;;;11.20;99.90;;;;;;10414905;28;20222;-79
2022/11/19 13:30:57;;;;;;;4.67;4.40;;;11.30;99.90;;;;;;10415243;28;20611;-79
2022/11/19 13:36:05;;;;;;;5.07;4.60;;;11.30;99.90;;;;;;10414360;28;20226;-79
2022/11/19 13:41:14;;;;;;;5.10;4.70;;;11.30;99.90;;;;;;10420533;28;20689;-79
2022/11/19 13:46:21;;;;;;;4.90;4.70;;;11.30;99.90;;;;;;10395424;28;20224;-79
2022/11/19 13:51:29;;;;;;;10.27;9.37;;;11.30;99.90;;;;;;10414332;28;20248;-80
2022/11/19 13:56:40;;;;;;;5.70;5.40;;;11.30;99.90;;;;;;10412190;28;20222;-78
2022/11/19 14:02:01;;;;;;;5.07;4.87;;;11.30;99.90;;;;;;10411719;28;20202;-78
2022/11/19 14:07:32;;;;;;;6.37;5.87;;;11.30;99.90;;;;;;10410777;28;20245;-81
2022/11/19 14:12:53;;;;;;;6.60;6.10;;;11.30;99.90;;;;;;10394296;28;20237;-77
2022/11/19 14:29:06;;;;;;;4.30;3.90;;;11.30;99.90;;;;;;10369091;28;20194;-78
2022/11/19 14:34:25;;;;;;;5.90;5.43;;;11.40;99.90;;;;;;10370370;28;20226;-81
2022/11/19 14:39:31;;;;;;;6.10;5.70;;;11.40;99.90;;;;;;10353018;28;20257;-79
2022/11/19 14:44:34;;;;;;;6.27;5.77;;;11.40;99.90;;;;;;10392316;28;20261;-78
2022/11/19 14:49:38;;;;;;;5.23;4.93;;;11.30;99.90;;;;;;10393080;28;20276;-79
2022/11/19 14:54:44;;;;;;;6.00;5.50;;;11.30;99.90;;;;;;10411533;28;20228;-78
2022/11/19 14:59:49;;;;;;;5.03;4.63;;;11.20;99.90;;;;;;10394115;28;20626;-78
2022/11/19 15:04:57;;;;;;;6.80;6.30;;;11.30;99.90;;;;;;10392796;28;20689;-78
2022/11/19 15:10:25;;;;;;;6.33;5.90;;;11.20;99.90;;;;;;10410102;28;20287;-81
2022/11/19 15:15:36;;;;;;;6.27;5.77;;;11.30;99.90;;;;;;10377905;28;20205;-81
2022/11/19 15:20:57;;;;;;;6.90;6.50;;;11.30;99.90;;;;;;10419064;28;20214;-79
2022/11/19 15:26:09;;;;;;;6.67;6.20;;;11.30;99.90;;;;;;10400663;28;20214;-79
2022/11/19 15:31:33;;;;;;;6.57;5.70;;;11.30;99.90;;;;;;10419285;28;20683;-79
2022/11/19 15:36:41;;;;;;;6.87;6.37;;;11.30;99.90;;;;;;10418017;28;20312;-81
2022/11/19 15:41:59;;;;;;;7.77;7.17;;;11.20;99.90;;;;;;10418627;28;20206;-77
2022/11/19 15:47:04;;;;;;;6.30;5.77;;;11.20;99.90;;;;;;10417199;28;20707;-77
2022/11/19 15:52:16;;;;;;;5.83;5.50;;;11.10;99.90;;;;;;10400619;28;20747;-77
2022/11/19 15:57:22;;;;;;;6.20;5.80;;;11.10;99.90;;;;;;10386886;28;20292;-80
2022/11/19 16:02:36;;;;;;;7.07;6.57;;;11.10;99.90;;;;;;10406699;28;20637;-79
2022/11/19 16:07:40;;;;;;;5.83;5.53;;;11.20;99.90;;;;;;10402057;28;20190;-79
2022/11/19 16:18:14;;;;;;;11.70;10.70;;;11.10;99.90;;;;;;10399446;28;20218;-79
2022/11/19 16:23:20;;;;;;;9.77;9.00;;;10.90;99.90;;;;;;10416869;28;20237;-79
2022/11/19 16:28:25;;;;;;;12.90;10.97;;;10.80;99.90;;;;;;10416536;28;20570;-79
2022/11/19 16:33:29;;;;;;;11.50;10.60;;;10.60;99.90;;;;;;10418530;28;20267;-78
2022/11/19 16:38:33;;;;;;;12.13;11.13;;;10.50;99.90;;;;;;10400986;28;20288;-79
2022/11/19 16:43:35;;;;;;;11.30;10.40;;;10.30;99.90;;;;;;10399612;28;20221;-79
2022/11/19 16:48:59;;;;;;;13.50;12.43;;;10.20;99.90;;;;;;10416365;28;20286;-81
2022/11/19 16:54:04;;;;;;;12.80;11.90;;;10.20;99.90;;;;;;10396366;28;20231;-78
2022/11/19 16:59:07;;;;;;;12.73;11.80;;;10.20;99.90;;;;;;10396595;28;20225;-81
2022/11/19 17:04:14;;;;;;;13.03;12.03;;;10.20;99.90;;;;;;10414774;28;20213;-79
2022/11/19 17:09:32;;;;;;;12.63;11.60;;;10.20;99.90;;;;;;10414341;28;20619;-78
2022/11/19 17:14:50;;;;;;;12.23;11.33;;;10.10;99.90;;;;;;10379869;28;20681;-78
2022/11/19 17:19:52;;;;;;;12.53;11.63;;;10.10;99.90;;;;;;10412700;28;20691;-81
2022/11/19 17:24:56;;;;;;;14.00;12.80;;;10.10;99.90;;;;;;10395387;28;20245;-78
2022/11/19 17:30:02;;;;;;;12.90;11.83;;;10.10;99.90;;;;;;10379361;28;20206;-77
2022/11/19 17:35:07;;;;;;;14.13;13.10;;;10.10;99.90;;;;;;10395908;28;20210;-79
2022/11/19 17:40:11;;;;;;;13.00;12.00;;;10.10;99.90;;;;;;10413442;28;20730;-77
2022/11/19 17:45:13;;;;;;;14.73;13.60;;;10.10;99.90;;;;;;10379451;28;20629;-78
2022/11/19 17:50:15;;;;;;;14.33;13.23;;;10.10;99.90;;;;;;10414126;28;20360;-79
2022/11/19 17:55:21;;;;;;;13.90;12.90;;;10.10;99.90;;;;;;10413467;28;20279;-78
2022/11/19 18:00:23;;;;;;;14.40;13.40;;;10.20;99.90;;;;;;10395400;28;20667;-79
2022/11/19 18:05:26;;;;;;;14.03;12.93;;;10.20;99.90;;;;;;10395838;28;20210;-79
2022/11/19 18:10:30;;;;;;;13.97;12.87;;;10.20;99.90;;;;;;10413620;28;20198;-79
2022/11/19 18:15:32;;;;;;;15.07;13.87;;;10.10;99.90;;;;;;10413758;28;20279;-79
2022/11/19 18:20:34;;;;;;;15.50;14.20;;;10.10;99.90;;;;;;10396822;28;20206;-79
2022/11/19 18:25:37;;;;;;;15.30;14.10;;;10.10;99.90;;;;;;10398799;28;20237;-79
2022/11/19 18:30:39;;;;;;;16.37;15.07;;;10.10;99.90;;;;;;10419614;28;20644;-82
2022/11/19 18:35:41;;;;;;;18.10;16.57;;;10.10;99.90;;;;;;10420729;28;20568;-80
2022/11/19 18:40:45;;;;;;;18.27;16.80;;;10.10;99.90;;;;;;10399905;28;20229;-77
2022/11/19 18:45:47;;;;;;;18.47;16.97;;;10.10;99.90;;;;;;10393383;28;20296;-79
2022/11/19 18:50:49;;;;;;;17.33;15.97;;;10.10;99.90;;;;;;10418853;28;20198;-82
2022/11/19 18:55:52;;;;;;;17.17;15.87;;;10.10;99.90;;;;;;10419247;28;20217;-82
2022/11/19 19:00:54;;;;;;;15.00;13.60;;;10.10;99.90;;;;;;10419708;28;20228;-82
2022/11/19 19:05:59;;;;;;;11.70;10.90;;;10.00;99.90;;;;;;10418309;28;20218;-82
2022/11/19 19:16:25;;;;;;;11.00;10.10;;;9.90;99.90;;;;;;10384815;28;20228;-79
2022/11/19 19:21:28;;;;;;;12.97;11.83;;;9.90;99.90;;;;;;10401615;28;20201;-79
2022/11/19 19:26:31;;;;;;;10.40;9.70;;;9.90;99.90;;;;;;10420448;28;20213;-79
2022/11/19 19:31:34;;;;;;;11.17;10.37;;;9.90;99.90;;;;;;10421290;28;20378;-80
2022/11/19 19:36:36;;;;;;;11.00;10.10;;;10.00;99.90;;;;;;10403561;28;20222;-80
2022/11/19 19:41:39;;;;;;;11.03;10.20;;;10.00;99.90;;;;;;10404006;28;20710;-80
2022/11/19 19:46:41;;;;;;;11.13;10.23;;;10.00;99.90;;;;;;10399302;28;20237;-80
2022/11/19 19:51:43;;;;;;;10.70;9.90;;;10.10;99.90;;;;;;10419203;28;20193;-79
2022/11/19 19:56:47;;;;;;;12.17;11.17;;;10.10;99.90;;;;;;10406330;22;20259;-79
2022/11/19 20:01:50;;;;;;;11.70;10.90;;;10.10;99.90;;;;;;10360794;28;20203;-80
2022/11/19 20:06:52;;;;;;;13.00;11.97;;;10.10;99.90;;;;;;10330348;28;20212;-80
2022/11/19 20:11:56;;;;;;;13.10;11.93;;;10.10;99.90;;;;;;10308701;28;20195;-80
2022/11/19 20:17:01;;;;;;;13.30;12.20;;;10.10;99.90;;;;;;10331175;28;20227;-79
2022/11/19 20:22:03;;;;;;;13.60;12.70;;;10.00;99.90;;;;;;10307681;28;20635;-80
2022/11/19 20:27:07;;;;;;;14.63;13.33;;;10.00;99.90;;;;;;10333547;28;20223;-80
2022/11/19 20:32:09;;;;;;;17.50;16.23;;;10.00;99.90;;;;;;10325170;28;20195;-80
2022/11/19 20:37:13;;;;;;;17.80;16.40;;;10.00;99.90;;;;;;10333342;28;20234;-80
2022/11/19 20:47:36;;;;;;;17.13;15.80;;;10.00;99.90;;;;;;10312245;28;20318;-79
2022/11/19 20:52:39;;;;;;;19.40;17.80;;;10.00;99.90;;;;;;10313281;28;20204;-80
2022/11/19 20:57:42;;;;;;;18.57;17.17;;;9.90;99.90;;;;;;10310444;28;20597;-80
2022/11/19 21:02:44;;;;;;;18.30;16.80;;;9.90;99.90;;;;;;10319148;28;20196;-80
2022/11/19 21:07:47;;;;;;;19.03;17.33;;;9.90;99.90;;;;;;10300372;28;20195;-80
2022/11/19 21:13:00;;;;;;;18.83;17.47;;;9.90;99.90;;;;;;10321522;28;20196;-81
2022/11/19 21:18:03;;;;;;;20.13;18.30;;;9.90;99.90;;;;;;10314149;28;20218;-80
2022/11/19 21:23:07;;;;;;;20.90;19.10;;;10.00;99.90;;;;;;10290152;28;20240;-79
2022/11/19 21:28:10;;;;;;;21.07;19.27;;;10.00;99.90;;;;;;10304112;28;20568;-79
2022/11/19 21:33:12;;;;;;;18.33;16.83;;;10.00;99.90;;;;;;10307851;28;20219;-79
2022/11/19 21:38:14;;;;;;;17.33;16.03;;;10.10;99.90;;;;;;10318935;28;20261;-80
2022/11/19 21:43:18;;;;;;;28.60;26.00;;;10.00;99.90;;;;;;10340285;28;20298;-79
2022/11/19 21:48:21;;;;;;;22.50;20.53;;;9.90;99.90;;;;;;10325416;28;20191;-80
2022/11/19 21:53:23;;;;;;;20.60;18.70;;;9.90;99.90;;;;;;10318274;28;20254;-79
2022/11/19 21:58:26;;;;;;;19.73;18.20;;;9.90;99.90;;;;;;10309355;28;20231;-79
2022/11/19 22:03:30;;;;;;;22.10;20.20;;;9.90;99.90;;;;;;10314492;28;20223;-79
2022/11/19 22:08:32;;;;;;;18.63;17.13;;;9.90;99.90;;;;;;10310797;28;20657;-79
2022/11/19 22:13:36;;;;;;;19.23;17.80;;;9.80;99.90;;;;;;10282793;28;20285;-79
2022/11/19 22:18:38;;;;;;;18.80;17.40;;;9.80;99.90;;;;;;10328785;28;20216;-79
2022/11/19 22:23:40;;;;;;;20.07;18.57;;;9.80;99.90;;;;;;10316155;28;20246;-79
2022/11/19 22:28:44;;;;;;;18.93;17.43;;;9.80;99.90;;;;;;10311855;28;20234;-79
2022/11/19 22:33:48;;;;;;;19.73;18.23;;;9.80;99.90;;;;;;10316222;28;20703;-80
2022/11/19 22:38:51;;;;;;;18.80;17.30;;;9.80;99.90;;;;;;10311301;28;20289;-79
2022/11/19 22:43:55;;;;;;;17.70;16.30;;;9.80;99.90;;;;;;10307528;28;20229;-80
2022/11/19 22:48:57;;;;;;;16.17;14.87;;;9.80;99.90;;;;;;10297378;28;20210;-80
2022/11/19 22:53:59;;;;;;;18.13;16.50;;;9.80;99.90;;;;;;10313492;28;20230;-80
2022/11/19 22:59:02;;;;;;;16.70;15.30;;;9.80;99.90;;;;;;10313811;28;20222;-79
2022/11/19 23:04:06;;;;;;;18.87;17.20;;;9.80;99.90;;;;;;10332355;28;20241;-79
2022/11/19 23:09:08;;;;;;;17.87;16.23;;;9.70;99.90;;;;;;10313894;28;20199;-80
2022/11/19 23:14:14;;;;;;;16.93;15.63;;;9.70;99.90;;;;;;10326417;28;20585;-81
2022/11/19 23:19:17;;;;;;;16.93;15.63;;;9.60;99.90;;;;;;10306035;28;20246;-81
2022/11/19 23:24:20;;;;;;;17.40;15.93;;;9.60;99.90;;;;;;10307371;28;20215;-79
2022/11/19 23:29:24;;;;;;;16.10;14.87;;;9.50;99.90;;;;;;10273083;28;20686;-79
2022/11/19 23:34:26;;;;;;;16.20;14.80;;;9.50;99.90;;;;;;10293225;28;20243;-81
2022/11/19 23:39:28;;;;;;;18.00;16.20;;;9.50;99.90;;;;;;10311083;28;20306;-81
2022/11/19 23:44:31;;;;;;;16.13;14.73;;;9.50;99.90;;;;;;10313520;28;20234;-81
2022/11/19 23:49:33;;;;;;;14.17;13.07;;;9.40;99.90;;;;;;10318965;28;20642;-79
2022/11/19 23:54:35;;;;;;;14.63;13.00;;;9.40;99.90;;;;;;10299034;28;20699;-81
2022/11/19 23:59:39;;;;;;;13.30;12.40;;;9.30;99.90;;;;;;10339471;28;20229;-78
